sensor_id;sensor_type;location;lat;lon;timestamp;pressure;altitude;pressure_sealevel;temperature;humidity
39729;BME280;25402;42.004;23.088;2023-06-01T00:02:23;97585.75;;;12.25;57.19
39729;BME280;25402;42.004;23.088;2023-06-01T00:04:55;97586.63;;;12.32;56.99
39729;BME280;25402;42.004;23.088;2023-06-01T00:07:22;97568.47;;;12.32;56.73
39729;BME280;25402;42.004;23.088;2023-06-01T00:09:49;97579.59;;;12.37;56.63
39729;BME280;25402;42.004;23.088;2023-06-01T00:12:16;97575.25;;;12.43;56.48
39729;BME280;25402;42.004;23.088;2023-06-01T00:14:43;97576.91;;;12.44;56.30
39729;BME280;25402;42.004;23.088;2023-06-01T00:17:10;97564.63;;;12.48;55.98
39729;BME280;25402;42.004;23.088;2023-06-01T00:19:39;97570.50;;;12.51;55.79
39729;BME280;25402;42.004;23.088;2023-06-01T00:22:06;97573.22;;;12.51;55.49
39729;BME280;25402;42.004;23.088;2023-06-01T00:24:33;97570.97;;;12.55;55.45
39729;BME280;25402;42.004;23.088;2023-06-01T00:27:00;97566.75;;;12.52;55.45
39729;BME280;25402;42.004;23.088;2023-06-01T00:29:27;97587.47;;;12.60;55.26
39729;BME280;25402;42.004;23.088;2023-06-01T00:31:54;97579.50;;;12.52;55.01
39729;BME280;25402;42.004;23.088;2023-06-01T00:34:21;97588.19;;;12.41;55.17
39729;BME280;25402;42.004;23.088;2023-06-01T00:36:49;97581.16;;;12.25;55.24
39729;BME280;25402;42.004;23.088;2023-06-01T00:39:16;97587.03;;;12.29;55.27
39729;BME280;25402;42.004;23.088;2023-06-01T00:41:44;97586.91;;;12.15;55.44
39729;BME280;25402;42.004;23.088;2023-06-01T00:44:11;97579.75;;;12.08;55.74
39729;BME280;25402;42.004;23.088;2023-06-01T00:46:38;97578.91;;;12.07;55.64
39729;BME280;25402;42.004;23.088;2023-06-01T00:49:05;97574.34;;;12.08;56.09
39729;BME280;25402;42.004;23.088;2023-06-01T00:51:33;97566.84;;;12.10;56.14
39729;BME280;25402;42.004;23.088;2023-06-01T00:54:02;97573.97;;;12.11;56.24
39729;BME280;25402;42.004;23.088;2023-06-01T00:56:29;97567.47;;;12.12;55.83
39729;BME280;25402;42.004;23.088;2023-06-01T00:58:58;97562.47;;;12.09;56.03
39729;BME280;25402;42.004;23.088;2023-06-01T01:01:26;97576.06;;;12.15;55.82
39729;BME280;25402;42.004;23.088;2023-06-01T01:03:53;97577.28;;;12.13;56.18
39729;BME280;25402;42.004;23.088;2023-06-01T01:06:34;97564.34;;;12.08;55.91
39729;BME280;25402;42.004;23.088;2023-06-01T01:09:23;97575.69;;;12.19;55.70
39729;BME280;25402;42.004;23.088;2023-06-01T01:11:58;97571.28;;;12.17;55.72
39729;BME280;25402;42.004;23.088;2023-06-01T01:14:30;97586.59;;;12.25;55.33
39729;BME280;25402;42.004;23.088;2023-06-01T01:17:02;97543.03;;;12.05;55.14
39729;BME280;25402;42.004;23.088;2023-06-01T01:22:35;97583.28;;;12.30;55.11
39729;BME280;25402;42.004;23.088;2023-06-01T01:25:26;97573.81;;;12.19;55.31
39729;BME280;25402;42.004;23.088;2023-06-01T01:28:08;97546.63;;;12.12;54.62
39729;BME280;25402;42.004;23.088;2023-06-01T01:30:40;97566.97;;;12.23;54.63
39729;BME280;25402;42.004;23.088;2023-06-01T01:33:07;97581.38;;;12.24;54.58
39729;BME280;25402;42.004;23.088;2023-06-01T01:35:36;97576.13;;;12.22;54.59
39729;BME280;25402;42.004;23.088;2023-06-01T01:38:04;97570.06;;;12.20;54.18
39729;BME280;25402;42.004;23.088;2023-06-01T01:40:31;97583.06;;;12.31;54.04
39729;BME280;25402;42.004;23.088;2023-06-01T01:42:58;97564.56;;;12.13;53.76
39729;BME280;25402;42.004;23.088;2023-06-01T01:45:25;97580.44;;;12.16;53.85
39729;BME280;25402;42.004;23.088;2023-06-01T01:47:59;97582.31;;;12.16;53.73
39729;BME280;25402;42.004;23.088;2023-06-01T01:50:35;97582.72;;;12.13;53.83
39729;BME280;25402;42.004;23.088;2023-06-01T01:53:06;97585.19;;;12.08;53.75
39729;BME280;25402;42.004;23.088;2023-06-01T01:55:35;97578.47;;;12.04;53.70
39729;BME280;25402;42.004;23.088;2023-06-01T01:58:02;97575.69;;;11.97;54.14
39729;BME280;25402;42.004;23.088;2023-06-01T02:00:30;97581.09;;;11.97;54.10
39729;BME280;25402;42.004;23.088;2023-06-01T02:02:58;97585.25;;;11.57;54.71
39729;BME280;25402;42.004;23.088;2023-06-01T02:05:25;97586.88;;;11.73;54.69
39729;BME280;25402;42.004;23.088;2023-06-01T02:07:52;97594.19;;;11.72;54.69
39729;BME280;25402;42.004;23.088;2023-06-01T02:10:19;97589.78;;;11.71;54.60
39729;BME280;25402;42.004;23.088;2023-06-01T02:12:46;97585.53;;;11.62;54.84
39729;BME280;25402;42.004;23.088;2023-06-01T02:15:13;97589.00;;;11.56;55.43
39729;BME280;25402;42.004;23.088;2023-06-01T02:17:40;97588.34;;;11.54;55.26
39729;BME280;25402;42.004;23.088;2023-06-01T02:20:10;97585.47;;;11.41;55.29
39729;BME280;25402;42.004;23.088;2023-06-01T02:22:37;97578.09;;;11.35;55.15
39729;BME280;25402;42.004;23.088;2023-06-01T02:25:06;97590.63;;;11.36;55.13
39729;BME280;25402;42.004;23.088;2023-06-01T02:27:33;97568.09;;;11.14;55.06
39729;BME280;25402;42.004;23.088;2023-06-01T02:30:00;97590.41;;;11.16;55.37
39729;BME280;25402;42.004;23.088;2023-06-01T02:32:27;97606.25;;;11.19;55.46
39729;BME280;25402;42.004;23.088;2023-06-01T02:34:56;97595.25;;;11.06;55.44
39729;BME280;25402;42.004;23.088;2023-06-01T02:37:24;97589.91;;;10.83;56.22
39729;BME280;25402;42.004;23.088;2023-06-01T02:39:51;97593.53;;;10.90;56.32
39729;BME280;25402;42.004;23.088;2023-06-01T02:42:18;97585.72;;;10.66;56.48
39729;BME280;25402;42.004;23.088;2023-06-01T02:44:45;97601.75;;;10.82;56.34
39729;BME280;25402;42.004;23.088;2023-06-01T02:47:12;97579.44;;;10.65;56.52
39729;BME280;25402;42.004;23.088;2023-06-01T02:49:39;97572.19;;;10.66;56.52
39729;BME280;25402;42.004;23.088;2023-06-01T02:52:06;97590.94;;;10.82;56.52
39729;BME280;25402;42.004;23.088;2023-06-01T02:54:35;97595.41;;;10.90;56.37
39729;BME280;25402;42.004;23.088;2023-06-01T02:57:02;97585.78;;;10.87;56.34
39729;BME280;25402;42.004;23.088;2023-06-01T02:59:29;97602.72;;;11.04;56.49
39729;BME280;25402;42.004;23.088;2023-06-01T03:01:55;97589.91;;;10.98;56.09
39729;BME280;25402;42.004;23.088;2023-06-01T03:04:22;97597.75;;;11.07;56.06
39729;BME280;25402;42.004;23.088;2023-06-01T03:06:49;97597.22;;;11.12;56.05
39729;BME280;25402;42.004;23.088;2023-06-01T03:09:16;97594.56;;;11.19;56.34
39729;BME280;25402;42.004;23.088;2023-06-01T03:11:45;97595.50;;;11.26;55.92
39729;BME280;25402;42.004;23.088;2023-06-01T03:14:12;97612.56;;;11.41;55.44
39729;BME280;25402;42.004;23.088;2023-06-01T03:16:39;97597.72;;;11.37;55.21
39729;BME280;25402;42.004;23.088;2023-06-01T03:19:06;97607.97;;;11.56;55.01
39729;BME280;25402;42.004;23.088;2023-06-01T03:21:34;97607.22;;;11.62;54.68
39729;BME280;25402;42.004;23.088;2023-06-01T03:24:02;97590.31;;;11.60;54.53
39729;BME280;25402;42.004;23.088;2023-06-01T03:26:29;97611.13;;;11.81;54.47
39729;BME280;25402;42.004;23.088;2023-06-01T03:28:58;97608.53;;;11.88;54.52
39729;BME280;25402;42.004;23.088;2023-06-01T03:31:25;97587.59;;;11.81;54.02
39729;BME280;25402;42.004;23.088;2023-06-01T03:33:52;97620.06;;;12.11;54.23
39729;BME280;25402;42.004;23.088;2023-06-01T03:36:19;97618.88;;;12.20;53.89
39729;BME280;25402;42.004;23.088;2023-06-01T03:38:46;97608.94;;;12.27;53.54
39729;BME280;25402;42.004;23.088;2023-06-01T03:41:13;97615.13;;;12.42;53.28
39729;BME280;25402;42.004;23.088;2023-06-01T03:43:41;97599.69;;;12.43;52.95
39729;BME280;25402;42.004;23.088;2023-06-01T03:46:09;97618.59;;;12.58;52.55
39729;BME280;25402;42.004;23.088;2023-06-01T03:48:36;97616.53;;;12.94;51.37
39729;BME280;25402;42.004;23.088;2023-06-01T03:51:03;97612.38;;;13.33;50.73
39729;BME280;25402;42.004;23.088;2023-06-01T03:53:31;97606.28;;;13.65;50.47
39729;BME280;25402;42.004;23.088;2023-06-01T03:55:59;97621.00;;;14.04;50.23
39729;BME280;25402;42.004;23.088;2023-06-01T03:58:26;97605.56;;;14.24;50.23
39729;BME280;25402;42.004;23.088;2023-06-01T04:00:53;97617.75;;;14.61;50.13
39729;BME280;25402;42.004;23.088;2023-06-01T04:03:23;97616.25;;;14.85;49.69
39729;BME280;25402;42.004;23.088;2023-06-01T04:05:55;97614.31;;;14.99;48.81
39729;BME280;25402;42.004;23.088;2023-06-01T04:08:25;97615.59;;;15.16;47.97
39729;BME280;25402;42.004;23.088;2023-06-01T04:10:52;97596.72;;;15.14;47.64
39729;BME280;25402;42.004;23.088;2023-06-01T04:13:20;97629.78;;;15.38;46.98
39729;BME280;25402;42.004;23.088;2023-06-01T04:15:47;97597.09;;;15.31;46.70
39729;BME280;25402;42.004;23.088;2023-06-01T04:18:14;97632.19;;;15.66;45.72
39729;BME280;25402;42.004;23.088;2023-06-01T04:20:46;97618.97;;;15.69;45.31
39729;BME280;25402;42.004;23.088;2023-06-01T04:23:13;97623.28;;;15.90;44.83
39729;BME280;25402;42.004;23.088;2023-06-01T04:25:44;97628.91;;;16.02;45.31
39729;BME280;25402;42.004;23.088;2023-06-01T04:28:16;97630.28;;;16.11;45.27
39729;BME280;25402;42.004;23.088;2023-06-01T04:30:46;97636.50;;;16.24;45.32
39729;BME280;25402;42.004;23.088;2023-06-01T04:33:16;97628.53;;;16.23;45.35
39729;BME280;25402;42.004;23.088;2023-06-01T04:35:46;97635.56;;;16.37;44.97
39729;BME280;25402;42.004;23.088;2023-06-01T04:38:14;97648.56;;;16.48;45.10
39729;BME280;25402;42.004;23.088;2023-06-01T04:40:42;97647.63;;;16.61;44.67
39729;BME280;25402;42.004;23.088;2023-06-01T04:43:10;97641.84;;;16.69;44.86
39729;BME280;25402;42.004;23.088;2023-06-01T04:45:38;97648.06;;;16.83;44.64
39729;BME280;25402;42.004;23.088;2023-06-01T04:48:11;97660.81;;;16.89;44.47
39729;BME280;25402;42.004;23.088;2023-06-01T04:50:40;97654.88;;;16.98;44.58
39729;BME280;25402;42.004;23.088;2023-06-01T04:53:09;97656.44;;;17.06;44.11
39729;BME280;25402;42.004;23.088;2023-06-01T04:55:36;97653.47;;;17.14;44.35
39729;BME280;25402;42.004;23.088;2023-06-01T04:58:03;97666.41;;;17.25;44.11
39729;BME280;25402;42.004;23.088;2023-06-01T05:00:31;97644.28;;;17.27;43.85
39729;BME280;25402;42.004;23.088;2023-06-01T05:02:58;97658.34;;;17.49;44.16
39729;BME280;25402;42.004;23.088;2023-06-01T05:05:28;97660.94;;;17.62;43.44
39729;BME280;25402;42.004;23.088;2023-06-01T05:07:55;97635.25;;;17.63;43.30
39729;BME280;25402;42.004;23.088;2023-06-01T05:10:24;97642.53;;;17.87;42.82
39729;BME280;25402;42.004;23.088;2023-06-01T05:12:51;97656.28;;;17.99;42.88
39729;BME280;25402;42.004;23.088;2023-06-01T05:15:18;97657.75;;;18.13;42.21
39729;BME280;25402;42.004;23.088;2023-06-01T05:17:45;97649.84;;;18.23;42.55
39729;BME280;25402;42.004;23.088;2023-06-01T05:20:13;97647.44;;;18.27;42.48
39729;BME280;25402;42.004;23.088;2023-06-01T05:22:41;97636.50;;;18.27;41.84
39729;BME280;25402;42.004;23.088;2023-06-01T05:25:09;97642.72;;;18.34;41.90
39729;BME280;25402;42.004;23.088;2023-06-01T05:27:37;97652.84;;;18.33;42.01
39729;BME280;25402;42.004;23.088;2023-06-01T05:30:05;97649.78;;;18.42;41.39
39729;BME280;25402;42.004;23.088;2023-06-01T05:32:33;97662.13;;;18.62;40.96
39729;BME280;25402;42.004;23.088;2023-06-01T05:35:00;97643.63;;;18.46;40.82
39729;BME280;25402;42.004;23.088;2023-06-01T05:37:27;97664.75;;;18.57;40.94
39729;BME280;25402;42.004;23.088;2023-06-01T05:39:54;97661.50;;;18.60;40.79
39729;BME280;25402;42.004;23.088;2023-06-01T05:42:20;97662.13;;;18.62;41.06
39729;BME280;25402;42.004;23.088;2023-06-01T05:44:49;97657.94;;;18.60;40.94
39729;BME280;25402;42.004;23.088;2023-06-01T05:47:18;97658.09;;;18.77;40.66
39729;BME280;25402;42.004;23.088;2023-06-01T05:49:45;97652.16;;;19.38;39.46
39729;BME280;25402;42.004;23.088;2023-06-01T05:52:13;97657.88;;;19.60;39.36
39729;BME280;25402;42.004;23.088;2023-06-01T05:54:40;97656.09;;;20.05;38.70
39729;BME280;25402;42.004;23.088;2023-06-01T05:57:08;97639.63;;;20.34;37.47
39729;BME280;25402;42.004;23.088;2023-06-01T05:59:34;97633.44;;;20.55;37.10
39729;BME280;25402;42.004;23.088;2023-06-01T06:02:05;97646.16;;;20.90;36.48
39729;BME280;25402;42.004;23.088;2023-06-01T06:04:33;97648.69;;;21.30;36.35
39729;BME280;25402;42.004;23.088;2023-06-01T06:07:01;97657.56;;;21.70;35.20
39729;BME280;25402;42.004;23.088;2023-06-01T06:09:29;97654.16;;;22.07;34.45
39729;BME280;25402;42.004;23.088;2023-06-01T06:11:56;97657.13;;;22.54;34.36
39729;BME280;25402;42.004;23.088;2023-06-01T06:14:24;97653.38;;;22.92;33.49
39729;BME280;25402;42.004;23.088;2023-06-01T06:16:54;97659.03;;;23.44;31.62
39729;BME280;25402;42.004;23.088;2023-06-01T06:19:24;97650.56;;;23.61;31.15
39729;BME280;25402;42.004;23.088;2023-06-01T06:21:51;97643.75;;;23.27;31.51
39729;BME280;25402;42.004;23.088;2023-06-01T06:24:18;97650.63;;;23.24;31.04
39729;BME280;25402;42.004;23.088;2023-06-01T06:26:45;97644.75;;;22.83;31.75
39729;BME280;25402;42.004;23.088;2023-06-01T06:29:13;97624.06;;;22.54;32.26
39729;BME280;25402;42.004;23.088;2023-06-01T06:31:40;97641.13;;;22.51;31.90
39729;BME280;25402;42.004;23.088;2023-06-01T06:34:11;97635.56;;;22.46;32.29
39729;BME280;25402;42.004;23.088;2023-06-01T06:36:40;97629.78;;;22.74;31.23
39729;BME280;25402;42.004;23.088;2023-06-01T06:39:08;97641.25;;;22.93;31.40
39729;BME280;25402;42.004;23.088;2023-06-01T06:41:35;97635.41;;;23.21;30.86
39729;BME280;25402;42.004;23.088;2023-06-01T06:44:04;97644.59;;;23.32;30.68
39729;BME280;25402;42.004;23.088;2023-06-01T06:46:31;97632.34;;;23.18;31.16
39729;BME280;25402;42.004;23.088;2023-06-01T06:48:58;97636.91;;;23.39;30.69
39729;BME280;25402;42.004;23.088;2023-06-01T06:51:26;97615.56;;;23.25;30.89
39729;BME280;25402;42.004;23.088;2023-06-01T06:53:55;97628.59;;;23.29;31.19
39729;BME280;25402;42.004;23.088;2023-06-01T06:56:23;97630.19;;;23.25;32.23
39729;BME280;25402;42.004;23.088;2023-06-01T06:58:50;97629.50;;;23.08;32.00
39729;BME280;25402;42.004;23.088;2023-06-01T07:01:20;97629.19;;;23.41;32.14
39729;BME280;25402;42.004;23.088;2023-06-01T07:03:50;97636.88;;;23.29;31.47
39729;BME280;25402;42.004;23.088;2023-06-01T07:06:19;97636.44;;;23.10;31.62
39729;BME280;25402;42.004;23.088;2023-06-01T07:08:47;97633.44;;;22.85;31.21
39729;BME280;25402;42.004;23.088;2023-06-01T07:11:16;97623.66;;;22.67;32.05
39729;BME280;25402;42.004;23.088;2023-06-01T07:13:43;97627.38;;;22.56;32.70
39729;BME280;25402;42.004;23.088;2023-06-01T07:16:13;97625.31;;;22.41;32.58
39729;BME280;25402;42.004;23.088;2023-06-01T07:18:40;97626.41;;;22.40;33.01
39729;BME280;25402;42.004;23.088;2023-06-01T07:21:07;97622.81;;;22.40;32.71
39729;BME280;25402;42.004;23.088;2023-06-01T07:23:36;97611.78;;;22.40;32.23
39729;BME280;25402;42.004;23.088;2023-06-01T07:26:03;97611.38;;;22.53;32.40
39729;BME280;25402;42.004;23.088;2023-06-01T07:28:33;97599.63;;;23.00;32.13
39729;BME280;25402;42.004;23.088;2023-06-01T07:31:03;97605.97;;;23.37;31.01
39729;BME280;25402;42.004;23.088;2023-06-01T07:33:31;97602.69;;;23.40;31.47
39729;BME280;25402;42.004;23.088;2023-06-01T07:35:59;97607.94;;;23.47;31.16
39729;BME280;25402;42.004;23.088;2023-06-01T07:38:26;97604.91;;;23.43;31.17
39729;BME280;25402;42.004;23.088;2023-06-01T07:40:56;97611.53;;;23.47;31.30
39729;BME280;25402;42.004;23.088;2023-06-01T07:43:23;97598.56;;;23.48;31.24
39729;BME280;25402;42.004;23.088;2023-06-01T07:45:52;97603.53;;;23.46;31.04
39729;BME280;25402;42.004;23.088;2023-06-01T07:48:19;97587.03;;;23.56;31.45
39729;BME280;25402;42.004;23.088;2023-06-01T07:50:46;97601.50;;;23.78;31.79
39729;BME280;25402;42.004;23.088;2023-06-01T07:53:13;97599.34;;;23.96;31.64
39729;BME280;25402;42.004;23.088;2023-06-01T07:55:41;97588.31;;;24.01;31.63
39729;BME280;25402;42.004;23.088;2023-06-01T07:58:09;97596.66;;;24.21;31.56
39729;BME280;25402;42.004;23.088;2023-06-01T08:00:36;97580.69;;;24.23;30.98
39729;BME280;25402;42.004;23.088;2023-06-01T08:03:04;97585.31;;;24.12;31.44
39729;BME280;25402;42.004;23.088;2023-06-01T08:05:34;97572.59;;;24.11;30.91
39729;BME280;25402;42.004;23.088;2023-06-01T08:08:02;97577.84;;;24.03;30.85
39729;BME280;25402;42.004;23.088;2023-06-01T08:10:30;97573.66;;;23.95;30.95
39729;BME280;25402;42.004;23.088;2023-06-01T08:12:58;97573.13;;;23.98;30.90
39729;BME280;25402;42.004;23.088;2023-06-01T08:15:26;97575.63;;;24.10;30.79
39729;BME280;25402;42.004;23.088;2023-06-01T08:17:53;97572.56;;;23.91;31.00
39729;BME280;25402;42.004;23.088;2023-06-01T08:20:23;97564.16;;;23.66;31.66
39729;BME280;25402;42.004;23.088;2023-06-01T08:22:52;97542.47;;;23.32;31.75
39729;BME280;25402;42.004;23.088;2023-06-01T08:25:22;97562.47;;;23.60;31.73
39729;BME280;25402;42.004;23.088;2023-06-01T08:27:49;97560.25;;;23.56;32.15
39729;BME280;25402;42.004;23.088;2023-06-01T08:30:17;97558.69;;;23.76;32.12
39729;BME280;25402;42.004;23.088;2023-06-01T08:32:46;97559.84;;;23.90;31.92
39729;BME280;25402;42.004;23.088;2023-06-01T08:35:14;97553.81;;;24.08;32.02
39729;BME280;25402;42.004;23.088;2023-06-01T08:37:42;97542.75;;;24.03;31.69
39729;BME280;25402;42.004;23.088;2023-06-01T08:40:10;97542.47;;;24.10;31.14
39729;BME280;25402;42.004;23.088;2023-06-01T08:42:46;97540.84;;;24.19;31.43
39729;BME280;25402;42.004;23.088;2023-06-01T08:45:17;97523.47;;;24.34;31.20
39729;BME280;25402;42.004;23.088;2023-06-01T08:47:47;97539.50;;;24.52;30.92
39729;BME280;25402;42.004;23.088;2023-06-01T08:50:16;97516.25;;;24.58;30.87
39729;BME280;25402;42.004;23.088;2023-06-01T08:52:46;97519.56;;;24.60;30.46
39729;BME280;25402;42.004;23.088;2023-06-01T08:55:14;97512.94;;;24.56;30.37
39729;BME280;25402;42.004;23.088;2023-06-01T08:57:42;97512.69;;;24.32;30.28
39729;BME280;25402;42.004;23.088;2023-06-01T09:00:11;97489.13;;;24.14;30.29
39729;BME280;25402;42.004;23.088;2023-06-01T09:02:41;97507.41;;;24.31;30.21
39729;BME280;25402;42.004;23.088;2023-06-01T09:05:09;97507.69;;;24.49;30.18
39729;BME280;25402;42.004;23.088;2023-06-01T09:07:38;97508.25;;;24.51;29.63
39729;BME280;25402;42.004;23.088;2023-06-01T09:10:08;97511.28;;;24.60;29.90
39729;BME280;25402;42.004;23.088;2023-06-01T09:12:37;97504.66;;;24.71;29.65
39729;BME280;25402;42.004;23.088;2023-06-01T09:15:09;97509.06;;;24.82;29.09
39729;BME280;25402;42.004;23.088;2023-06-01T09:17:37;97496.59;;;25.00;29.17
39729;BME280;25402;42.004;23.088;2023-06-01T09:20:06;97496.78;;;25.19;29.13
39729;BME280;25402;42.004;23.088;2023-06-01T09:22:39;97492.88;;;25.35;28.57
39729;BME280;25402;42.004;23.088;2023-06-01T09:25:09;97495.16;;;25.13;28.21
39729;BME280;25402;42.004;23.088;2023-06-01T09:27:43;97484.13;;;24.98;28.54
39729;BME280;25402;42.004;23.088;2023-06-01T09:30:11;97475.06;;;24.51;29.04
39729;BME280;25402;42.004;23.088;2023-06-01T09:32:39;97467.34;;;24.38;29.53
39729;BME280;25402;42.004;23.088;2023-06-01T09:35:07;97471.19;;;24.68;29.34
39729;BME280;25402;42.004;23.088;2023-06-01T09:37:36;97460.38;;;24.76;29.33
39729;BME280;25402;42.004;23.088;2023-06-01T09:40:17;97450.94;;;24.98;28.88
39729;BME280;25402;42.004;23.088;2023-06-01T09:42:45;97448.38;;;25.16;29.13
39729;BME280;25402;42.004;23.088;2023-06-01T09:45:17;97445.00;;;25.19;28.51
39729;BME280;25402;42.004;23.088;2023-06-01T09:47:45;97455.78;;;25.26;28.70
39729;BME280;25402;42.004;23.088;2023-06-01T09:50:31;97453.22;;;25.50;28.33
39729;BME280;25402;42.004;23.088;2023-06-01T09:52:59;97445.03;;;25.74;28.37
39729;BME280;25402;42.004;23.088;2023-06-01T09:55:28;97438.50;;;25.98;28.05
39729;BME280;25402;42.004;23.088;2023-06-01T09:58:18;97432.22;;;26.27;27.54
39729;BME280;25402;42.004;23.088;2023-06-01T10:03:14;97426.03;;;26.64;27.06
39729;BME280;25402;42.004;23.088;2023-06-01T10:05:43;97429.00;;;26.73;26.58
39729;BME280;25402;42.004;23.088;2023-06-01T10:08:11;97428.66;;;26.79;26.13
39729;BME280;25402;42.004;23.088;2023-06-01T10:10:44;97418.97;;;27.00;25.58
39729;BME280;25402;42.004;23.088;2023-06-01T10:13:11;97415.84;;;27.07;24.04
39729;BME280;25402;42.004;23.088;2023-06-01T10:15:38;97414.94;;;27.12;24.41
39729;BME280;25402;42.004;23.088;2023-06-01T10:18:06;97404.78;;;27.26;24.57
39729;BME280;25402;42.004;23.088;2023-06-01T10:20:33;97408.19;;;27.42;25.47
39729;BME280;25402;42.004;23.088;2023-06-01T10:23:01;97392.00;;;27.49;24.72
39729;BME280;25402;42.004;23.088;2023-06-01T10:25:30;97399.19;;;27.68;24.12
39729;BME280;25402;42.004;23.088;2023-06-01T10:28:02;97399.66;;;27.76;23.91
39729;BME280;25402;42.004;23.088;2023-06-01T10:30:34;97376.75;;;27.84;23.78
39729;BME280;25402;42.004;23.088;2023-06-01T10:33:01;97380.75;;;28.10;23.92
39729;BME280;25402;42.004;23.088;2023-06-01T10:36:01;97383.72;;;28.32;23.98
39729;BME280;25402;42.004;23.088;2023-06-01T10:38:28;97373.81;;;28.26;23.15
39729;BME280;25402;42.004;23.088;2023-06-01T10:41:27;97373.22;;;28.29;22.61
39729;BME280;25402;42.004;23.088;2023-06-01T10:43:57;97361.72;;;28.17;22.21
39729;BME280;25402;42.004;23.088;2023-06-01T10:46:38;97361.88;;;28.39;23.97
39729;BME280;25402;42.004;23.088;2023-06-01T10:49:06;97359.03;;;28.58;23.35
39729;BME280;25402;42.004;23.088;2023-06-01T10:51:33;97358.97;;;28.77;23.47
39729;BME280;25402;42.004;23.088;2023-06-01T10:54:26;97357.59;;;29.02;23.23
39729;BME280;25402;42.004;23.088;2023-06-01T10:57:18;97352.25;;;28.92;22.82
39729;BME280;25402;42.004;23.088;2023-06-01T11:00:16;97345.44;;;28.98;22.98
39729;BME280;25402;42.004;23.088;2023-06-01T11:02:50;97346.25;;;28.98;23.40
39729;BME280;25402;42.004;23.088;2023-06-01T11:05:40;97350.81;;;28.94;23.60
39729;BME280;25402;42.004;23.088;2023-06-01T11:10:55;97341.72;;;29.02;23.76
39729;BME280;25402;42.004;23.088;2023-06-01T11:13:26;97336.34;;;29.06;23.57
39729;BME280;25402;42.004;23.088;2023-06-01T11:16:31;97334.53;;;28.88;23.79
39729;BME280;25402;42.004;23.088;2023-06-01T11:19:02;97320.97;;;28.26;23.64
39729;BME280;25402;42.004;23.088;2023-06-01T11:21:31;97312.41;;;28.23;23.38
39729;BME280;25402;42.004;23.088;2023-06-01T11:24:05;97314.19;;;28.32;22.84
39729;BME280;25402;42.004;23.088;2023-06-01T11:26:35;97315.22;;;28.36;23.03
39729;BME280;25402;42.004;23.088;2023-06-01T11:29:12;97297.28;;;28.43;23.28
39729;BME280;25402;42.004;23.088;2023-06-01T11:31:42;97298.44;;;28.55;22.21
39729;BME280;25402;42.004;23.088;2023-06-01T11:34:10;97297.72;;;28.77;22.93
39729;BME280;25402;42.004;23.088;2023-06-01T11:36:43;97311.63;;;28.91;22.32
39729;BME280;25402;42.004;23.088;2023-06-01T11:39:21;97307.72;;;28.78;22.30
39729;BME280;25402;42.004;23.088;2023-06-01T11:41:51;97293.50;;;28.80;21.38
39729;BME280;25402;42.004;23.088;2023-06-01T11:44:20;97295.06;;;28.72;21.68
39729;BME280;25402;42.004;23.088;2023-06-01T11:46:52;97295.75;;;28.64;21.31
39729;BME280;25402;42.004;23.088;2023-06-01T11:49:19;97292.25;;;28.72;21.35
39729;BME280;25402;42.004;23.088;2023-06-01T11:51:47;97279.25;;;28.81;21.46
39729;BME280;25402;42.004;23.088;2023-06-01T11:54:14;97288.25;;;28.78;21.14
39729;BME280;25402;42.004;23.088;2023-06-01T11:56:41;97276.28;;;28.64;21.13
39729;BME280;25402;42.004;23.088;2023-06-01T11:59:09;97273.41;;;28.69;21.27
39729;BME280;25402;42.004;23.088;2023-06-01T12:01:42;97271.91;;;28.99;21.39
39729;BME280;25402;42.004;23.088;2023-06-01T12:04:13;97274.16;;;29.24;21.67
39729;BME280;25402;42.004;23.088;2023-06-01T12:06:40;97266.56;;;29.38;21.03
39729;BME280;25402;42.004;23.088;2023-06-01T12:09:09;97269.28;;;29.52;20.50
39729;BME280;25402;42.004;23.088;2023-06-01T12:11:37;97241.16;;;29.40;20.16
39729;BME280;25402;42.004;23.088;2023-06-01T12:14:05;97251.09;;;29.32;20.59
39729;BME280;25402;42.004;23.088;2023-06-01T12:16:51;97262.69;;;29.26;20.86
39729;BME280;25402;42.004;23.088;2023-06-01T12:19:20;97261.88;;;29.12;21.12
39729;BME280;25402;42.004;23.088;2023-06-01T12:21:48;97250.38;;;28.91;20.78
39729;BME280;25402;42.004;23.088;2023-06-01T12:24:16;97253.50;;;28.76;20.77
39729;BME280;25402;42.004;23.088;2023-06-01T12:26:43;97238.22;;;28.87;20.58
39729;BME280;25402;42.004;23.088;2023-06-01T12:29:11;97237.41;;;28.86;20.08
39729;BME280;25402;42.004;23.088;2023-06-01T12:31:38;97235.22;;;28.83;20.38
39729;BME280;25402;42.004;23.088;2023-06-01T12:34:15;97237.19;;;28.96;20.88
39729;BME280;25402;42.004;23.088;2023-06-01T12:36:44;97224.69;;;29.30;20.55
39729;BME280;25402;42.004;23.088;2023-06-01T12:39:10;97222.38;;;29.68;20.03
39729;BME280;25402;42.004;23.088;2023-06-01T12:41:47;97216.53;;;30.09;19.72
39729;BME280;25402;42.004;23.088;2023-06-01T12:44:20;97211.34;;;30.25;19.60
39729;BME280;25402;42.004;23.088;2023-06-01T12:46:47;97205.69;;;30.07;19.39
39729;BME280;25402;42.004;23.088;2023-06-01T12:49:22;97205.75;;;30.25;19.29
39729;BME280;25402;42.004;23.088;2023-06-01T12:51:51;97208.84;;;30.15;19.33
39729;BME280;25402;42.004;23.088;2023-06-01T12:54:17;97193.78;;;30.24;19.77
39729;BME280;25402;42.004;23.088;2023-06-01T12:56:47;97186.47;;;30.37;19.01
39729;BME280;25402;42.004;23.088;2023-06-01T12:59:14;97183.38;;;30.56;18.70
39729;BME280;25402;42.004;23.088;2023-06-01T13:01:41;97183.91;;;30.66;19.49
39729;BME280;25402;42.004;23.088;2023-06-01T13:04:08;97181.78;;;30.63;18.78
39729;BME280;25402;42.004;23.088;2023-06-01T13:06:35;97173.91;;;30.65;19.02
39729;BME280;25402;42.004;23.088;2023-06-01T13:09:05;97162.50;;;30.44;18.84
39729;BME280;25402;42.004;23.088;2023-06-01T13:11:33;97173.41;;;30.63;19.26